Time;durP1;ratioP1;P1;durP2;ratioP2;P2;SDS_P1;SDS_P2;PMS_P1;PMS_P2;Temp;Humidity;BMP_temperature;BMP_pressure;BME280_temperature;BME280_humidity;BME280_pressure;Samples;Min_cycle;Max_cycle;Signal;HPM_P1;HPM_P2
2023/04/01 00:01:13;;;;;;;6.25;3.30;;;;;;;12.66;63.41;98420.22;6172852;22;96727;-90
2023/04/01 00:03:39;;;;;;;4.00;2.80;;;;;;;12.71;63.43;98416.38;6174352;22;96988;-87
2023/04/01 00:06:05;;;;;;;4.85;2.65;;;;;;;12.63;63.44;98422.22;6199014;22;100189;-90
2023/04/01 00:08:31;;;;;;;6.45;3.00;;;;;;;12.65;63.76;98425.56;6193565;22;101087;-91
2023/04/01 00:10:57;;;;;;;8.38;3.25;;;;;;;12.61;63.29;98409.16;6191292;22;96679;-91
2023/04/01 00:13:23;;;;;;;5.75;3.10;;;;;;;12.62;64.01;98412.63;6214082;22;97116;-88
2023/04/01 00:15:49;;;;;;;5.22;2.88;;;;;;;12.71;63.63;98421.66;6167725;22;100527;-89
2023/04/01 00:18:16;;;;;;;4.78;2.83;;;;;;;12.68;63.74;98415.69;6191888;22;96706;-86
2023/04/01 00:20:46;;;;;;;5.93;3.22;;;;;;;12.73;63.72;98412.69;6192615;22;97022;-91
2023/04/01 00:23:12;;;;;;;7.05;3.08;;;;;;;12.75;63.27;98404.69;6193451;22;96880;-90
2023/04/01 00:25:38;;;;;;;6.85;3.15;;;;;;;12.61;63.58;98405.69;6188994;22;101248;-92
2023/04/01 00:28:04;;;;;;;5.50;3.53;;;;;;;12.46;63.36;98407.66;6190597;22;101915;-93
2023/04/01 00:30:30;;;;;;;5.72;3.63;;;;;;;12.55;63.30;98411.41;6211584;22;97118;-91
2023/04/01 00:32:55;;;;;;;4.22;3.30;;;;;;;12.53;63.66;98418.56;6189259;22;96965;-91
2023/04/01 00:35:22;;;;;;;7.15;3.67;;;;;;;12.50;63.82;98417.00;6212995;22;100713;-90
2023/04/01 00:37:47;;;;;;;8.13;3.40;;;;;;;12.53;63.59;98419.41;6190168;22;100735;-91
2023/04/01 00:40:28;;;;;;;5.68;3.53;;;;;;;12.47;63.51;98411.94;6215421;22;97203;-92
2023/04/01 00:42:54;;;;;;;7.50;3.83;;;;;;;12.55;63.64;98417.50;6242627;22;96959;-89
2023/04/01 00:45:27;;;;;;;7.35;3.90;;;;;;;12.62;63.07;98415.25;6188278;22;101867;-87
2023/04/01 00:47:53;;;;;;;5.68;4.00;;;;;;;12.54;63.38;98405.31;6185940;22;101130;-91
2023/04/01 00:50:19;;;;;;;5.88;3.53;;;;;;;12.60;63.47;98406.66;6189553;22;96973;-85
2023/04/01 00:52:46;;;;;;;7.15;5.13;;;;;;;12.59;63.41;98408.44;6190930;22;96979;-90
2023/04/01 00:55:13;;;;;;;6.88;3.92;;;;;;;12.59;63.59;98413.69;6189119;22;102269;-93
2023/04/01 00:57:39;;;;;;;7.50;4.43;;;;;;;12.54;63.86;98404.47;6189056;22;97152;-94
2023/04/01 01:00:10;;;;;;;6.82;3.53;;;;;;;12.54;63.53;98404.47;6213975;22;97180;-89
2023/04/01 01:02:37;;;;;;;6.38;4.35;;;;;;;12.58;63.63;98406.75;6165652;22;96695;-91
2023/04/01 01:05:02;;;;;;;7.43;3.67;;;;;;;12.51;63.69;98416.06;6185483;22;101284;-89
2023/04/01 01:07:58;;;;;;;9.32;4.78;;;;;;;12.58;63.26;98414.66;6188912;22;101412;-87
2023/04/01 01:10:30;;;;;;;7.25;3.95;;;;;;;12.56;63.29;98420.97;6215282;22;96745;-90
2023/04/01 01:13:18;;;;;;;6.18;4.00;;;;;;;12.38;64.23;98399.47;6191200;22;97109;-90
2023/04/01 01:16:05;;;;;;;7.13;4.22;;;;;;;12.48;63.95;98407.53;6214954;22;101305;-90
2023/04/01 01:18:38;;;;;;;8.80;4.05;;;;;;;12.43;64.28;98413.97;6215232;22;97756;-90
2023/04/01 01:21:35;;;;;;;7.47;3.97;;;;;;;12.41;63.71;98405.34;6188165;22;97279;-89
2023/04/01 01:24:31;;;;;;;8.77;4.18;;;;;;;12.40;64.34;98401.03;6216246;22;97104;-90
2023/04/01 01:27:07;;;;;;;6.47;3.83;;;;;;;12.41;63.87;98407.13;6191266;22;102110;-90
2023/04/01 01:29:51;;;;;;;4.65;3.38;;;;;;;12.41;64.50;98413.22;6197571;22;100330;-90
2023/04/01 01:32:26;;;;;;;6.38;3.63;;;;;;;12.51;64.17;98408.16;6228646;22;97023;-90
2023/04/01 01:34:54;;;;;;;7.30;3.38;;;;;;;12.41;64.83;98405.34;6204276;22;96578;-90
2023/04/01 01:37:23;;;;;;;6.82;3.40;;;;;;;12.34;64.83;98408.53;6190261;22;100252;-85
2023/04/01 01:39:55;;;;;;;6.80;3.10;;;;;;;12.31;64.77;98400.88;6188923;22;101345;-91
2023/04/01 01:42:22;;;;;;;6.72;2.83;;;;;;;12.39;64.85;98411.66;6190210;22;96641;-85
2023/04/01 01:44:49;;;;;;;6.35;2.90;;;;;;;12.35;65.14;98412.84;6190002;22;96787;-89
2023/04/01 01:47:17;;;;;;;3.75;2.63;;;;;;;12.37;65.12;98408.31;6189880;22;100817;-87
2023/04/01 01:49:43;;;;;;;4.75;3.42;;;;;;;12.35;65.01;98395.25;6188972;22;100566;-88
2023/04/01 01:52:09;;;;;;;4.40;3.00;;;;;;;12.37;64.88;98408.31;6190257;22;96606;-90
2023/04/01 01:54:35;;;;;;;4.00;3.08;;;;;;;12.28;64.39;98396.66;6189213;22;97226;-89
2023/04/01 01:57:07;;;;;;;5.75;3.53;;;;;;;12.32;64.66;98402.53;6189908;22;100103;-90
2023/04/01 01:59:35;;;;;;;5.07;3.25;;;;;;;12.30;64.90;98397.38;6163712;22;100707;-89
2023/04/01 02:02:07;;;;;;;8.15;3.00;;;;;;;12.28;64.95;98395.81;6190356;22;96667;-90
2023/04/01 02:04:34;;;;;;;;;;;;;;;12.33;64.65;98399.78;6165781;22;97110;-91
2023/04/01 02:07:02;;;;;;;5.88;2.90;;;;;;;12.35;64.80;98394.41;6189899;22;101124;-89
2023/04/01 02:09:29;;;;;;;6.15;2.90;;;;;;;12.30;64.61;98393.91;6188596;22;99591;-87
2023/04/01 02:12:08;;;;;;;5.97;3.25;;;;;;;12.21;64.80;98383.09;6190429;22;97267;-91
2023/04/01 02:15:05;;;;;;;6.50;2.70;;;;;;;12.33;64.44;98399.78;6190698;22;96972;-91
2023/04/01 02:17:32;;;;;;;7.45;3.03;;;;;;;12.32;64.81;98403.38;6162830;22;101568;-89
2023/04/01 02:20:14;;;;;;;5.05;2.75;;;;;;;12.36;64.61;98391.69;6188958;22;98168;-87
2023/04/01 02:22:44;;;;;;;6.07;2.22;;;;;;;12.30;64.73;98370.22;6164633;22;97280;-89
2023/04/01 02:25:16;;;;;;;5.47;2.60;;;;;;;12.36;64.55;98391.69;6194981;22;97296;-86
2023/04/01 02:27:43;;;;;;;3.85;2.40;;;;;;;12.30;65.02;98386.84;6214858;22;100838;-91
2023/04/01 02:30:10;;;;;;;3.08;2.05;;;;;;;12.37;65.01;98392.53;6189348;22;101448;-90
2023/04/01 02:32:37;;;;;;;4.75;2.28;;;;;;;12.36;64.69;98383.81;6188954;22;97111;-89
2023/04/01 02:35:06;;;;;;;5.43;2.10;;;;;;;12.43;64.61;98382.41;6165133;22;96942;-91
2023/04/01 02:37:32;;;;;;;5.47;2.55;;;;;;;12.51;64.55;98383.63;6188802;22;97811;-89
2023/04/01 02:40:04;;;;;;;6.03;2.60;;;;;;;12.39;64.42;98369.56;6164135;22;99915;-90
2023/04/01 02:42:30;;;;;;;6.30;2.60;;;;;;;12.41;64.86;98384.28;6188337;22;97069;-88
2023/04/01 02:44:55;;;;;;;3.20;2.00;;;;;;;12.42;64.96;98393.00;6188854;22;96688;-89
2023/04/01 02:47:21;;;;;;;3.88;2.30;;;;;;;12.41;64.74;98391.34;6189668;22;100405;-89
2023/04/01 02:49:46;;;;;;;4.53;2.33;;;;;;;12.43;64.46;98390.28;6188452;22;101899;-88
2023/04/01 02:52:12;;;;;;;5.22;2.13;;;;;;;12.49;64.25;98396.06;6215703;22;96810;-90
2023/04/01 02:54:38;;;;;;;3.45;1.95;;;;;;;12.44;64.31;98396.38;6188425;22;97117;-90
2023/04/01 02:57:03;;;;;;;3.50;2.28;;;;;;;12.42;64.97;98399.16;6214895;22;98273;-89
2023/04/01 02:59:29;;;;;;;8.35;2.55;;;;;;;12.41;64.63;98404.50;6189218;22;100711;-89
2023/04/01 03:01:55;;;;;;;6.20;2.05;;;;;;;12.38;65.06;98404.72;6211401;22;97055;-88
2023/04/01 03:04:20;;;;;;;3.70;1.95;;;;;;;12.43;64.45;98407.88;6214840;22;96924;-88
2023/04/01 03:06:46;;;;;;;6.18;2.47;;;;;;;12.41;65.30;98410.59;6187672;22;101361;-89
2023/04/01 03:09:11;;;;;;;4.05;2.35;;;;;;;12.38;64.73;98404.72;6215275;22;97276;-90
2023/04/01 03:11:37;;;;;;;5.15;2.08;;;;;;;12.40;64.98;98413.34;6188558;22;96675;-90
2023/04/01 03:14:02;;;;;;;3.78;2.10;;;;;;;12.39;64.87;98414.28;6215548;22;97044;-90
2023/04/01 03:16:28;;;;;;;4.53;2.22;;;;;;;12.37;64.85;98413.56;6213041;22;101491;-89
2023/04/01 03:18:56;;;;;;;3.92;2.28;;;;;;;12.34;64.89;98416.44;6211963;22;100062;-90
2023/04/01 03:21:23;;;;;;;4.82;2.00;;;;;;;12.41;65.01;98417.66;6189424;22;96789;-90
2023/04/01 03:23:49;;;;;;;5.72;2.17;;;;;;;12.36;64.60;98420.63;6215045;22;97306;-91
2023/04/01 03:26:16;;;;;;;3.60;1.90;;;;;;;12.37;64.85;98414.41;6188847;22;102245;-88
2023/04/01 03:28:42;;;;;;;4.07;1.90;;;;;;;12.39;65.06;98420.41;6162926;22;100511;-90
2023/04/01 03:31:08;;;;;;;2.75;1.75;;;;;;;12.45;65.00;98414.72;6188953;22;96628;-90
2023/04/01 03:33:40;;;;;;;2.70;1.63;;;;;;;12.39;64.80;98415.16;6213964;22;97366;-89
2023/04/01 03:36:06;;;;;;;3.63;2.30;;;;;;;12.28;65.40;98411.59;6210796;22;101508;-87
2023/04/01 03:38:35;;;;;;;5.07;2.95;;;;;;;12.34;65.43;98421.69;6186791;22;100875;-91
2023/04/01 03:41:01;;;;;;;4.07;3.08;;;;;;;12.21;65.11;98405.91;6163902;22;97172;-91
2023/04/01 03:43:27;;;;;;;4.80;3.35;;;;;;;12.23;66.10;98419.81;6163109;22;97029;-92
2023/04/01 03:45:54;;;;;;;5.07;2.90;;;;;;;12.29;65.76;98422.00;6189862;22;101222;-92
2023/04/01 03:48:20;;;;;;;3.92;3.08;;;;;;;12.30;65.92;98421.03;6190632;22;101530;-90
2023/04/01 03:50:46;;;;;;;3.75;2.35;;;;;;;12.24;65.84;98406.53;6164742;22;96634;-91
2023/04/01 03:53:12;;;;;;;11.32;2.70;;;;;;;12.24;65.83;98418.84;6189451;22;97525;-91
2023/04/01 03:55:41;;;;;;;2.95;2.38;;;;;;;12.26;66.62;98431.91;6187287;22;100524;-92
2023/04/01 03:58:07;;;;;;;4.15;2.40;;;;;;;12.17;66.67;98418.47;6215323;22;101664;-93
2023/04/01 04:00:33;;;;;;;5.13;2.78;;;;;;;12.19;66.62;98421.81;6164899;22;96746;-93
2023/04/01 04:03:00;;;;;;;5.28;2.80;;;;;;;12.15;67.28;98430.03;6215619;22;97220;-92
2023/04/01 04:05:30;;;;;;;4.80;2.90;;;;;;;12.23;66.83;98436.44;6191369;22;100189;-90
2023/04/01 04:07:57;;;;;;;4.35;3.03;;;;;;;12.23;67.06;98432.97;6215955;22;101142;-92
2023/04/01 04:10:24;;;;;;;5.70;3.55;;;;;;;12.14;67.21;98429.19;6187796;22;97429;-91
2023/04/01 04:12:51;;;;;;;6.00;4.13;;;;;;;12.17;67.10;98428.13;6190416;22;97448;-87
2023/04/01 04:15:18;;;;;;;6.90;4.53;;;;;;;12.13;67.03;98427.53;6190322;22;101203;-93
2023/04/01 04:17:45;;;;;;;4.93;4.28;;;;;;;12.19;67.16;98432.34;6188876;22;100013;-94
2023/04/01 04:20:13;;;;;;;5.07;3.58;;;;;;;12.20;67.22;98441.06;6165452;22;96691;-93
2023/04/01 04:22:38;;;;;;;6.78;3.33;;;;;;;12.19;67.57;98445.50;6189877;22;97166;-92
2023/04/01 04:25:07;;;;;;;5.72;2.65;;;;;;;12.15;67.40;98444.00;6200649;22;100346;-92
2023/04/01 04:27:33;;;;;;;3.90;3.03;;;;;;;12.15;67.33;98451.06;6206744;22;101411;-89
2023/04/01 04:30:08;;;;;;;3.30;2.22;;;;;;;12.14;67.85;98454.66;6197302;22;96576;-93
2023/04/01 04:32:34;;;;;;;5.35;2.47;;;;;;;12.11;67.82;98454.88;6166274;22;96644;-90
2023/04/01 04:35:00;;;;;;;2.53;1.77;;;;;;;12.14;67.39;98452.03;6190219;22;99813;-94
2023/04/01 04:37:26;;;;;;;3.42;2.00;;;;;;;12.19;67.76;98447.28;6190145;22;101412;-84
2023/04/01 04:39:52;;;;;;;5.40;2.35;;;;;;;12.14;67.87;98439.72;6190632;22;96968;-94
2023/04/01 04:42:18;;;;;;;3.67;1.90;;;;;;;12.05;68.44;98436.91;6216228;22;96933;-93
2023/04/01 04:44:44;;;;;;;4.57;1.77;;;;;;;12.11;68.51;98441.72;6214226;22;100868;-93
2023/04/01 04:47:10;;;;;;;5.07;1.60;;;;;;;12.04;68.70;98446.56;6212694;22;101027;-89
2023/04/01 04:49:36;;;;;;;3.97;2.00;;;;;;;11.99;68.27;98439.00;6242308;22;97745;-89
2023/04/01 04:52:05;;;;;;;4.28;1.92;;;;;;;12.08;68.52;98455.94;6216529;22;96764;-88
2023/04/01 04:54:31;;;;;;;2.50;1.85;;;;;;;12.00;68.27;98445.09;6188580;22;100190;-91
2023/04/01 04:56:59;;;;;;;3.83;1.60;;;;;;;11.81;68.76;98416.59;6189624;22;101517;-91
2023/04/01 04:59:26;;;;;;;2.33;1.67;;;;;;;12.04;68.53;98445.72;6189758;22;96830;-85
2023/04/01 05:02:01;;;;;;;3.97;1.60;;;;;;;12.03;68.35;98452.78;6169013;22;98121;-94
2023/04/01 05:04:27;;;;;;;4.78;1.80;;;;;;;12.05;68.49;98460.56;6188181;22;101651;-90
2023/04/01 05:06:53;;;;;;;5.72;2.10;;;;;;;12.08;68.64;98457.72;6214585;22;98667;-91
2023/04/01 05:09:19;;;;;;;10.73;2.67;;;;;;;12.14;68.10;98462.56;6215982;22;96567;-92
2023/04/01 05:11:45;;;;;;;3.53;1.95;;;;;;;12.11;68.50;98460.13;6188746;22;97103;-93
2023/04/01 05:14:16;;;;;;;4.10;2.33;;;;;;;12.03;68.56;98463.28;6189652;22;101280;-89
2023/04/01 05:16:50;;;;;;;3.33;2.15;;;;;;;12.06;68.34;98465.69;6160562;22;100662;-89
2023/04/01 05:19:16;;;;;;;4.70;2.10;;;;;;;12.04;68.71;98459.69;6160498;22;96617;-88
2023/04/01 05:21:41;;;;;;;3.33;1.85;;;;;;;11.98;68.93;98460.13;6156504;22;97921;-92
2023/04/01 05:24:09;;;;;;;6.28;2.40;;;;;;;11.95;69.05;98455.09;6211346;22;98024;-92
2023/04/01 05:26:36;;;;;;;3.55;2.03;;;;;;;11.97;68.92;98455.81;6158362;22;100722;-91
2023/04/01 05:29:05;;;;;;;5.05;2.50;;;;;;;12.01;68.98;98467.81;6185160;22;97996;-92
2023/04/01 05:31:33;;;;;;;4.55;2.42;;;;;;;11.98;69.22;98454.88;6184728;22;96697;-90
2023/04/01 05:34:00;;;;;;;3.47;2.33;;;;;;;12.05;68.73;98463.19;6183129;22;101458;-91
2023/04/01 05:36:25;;;;;;;4.43;2.70;;;;;;;12.08;68.91;98461.19;6134245;22;101486;-91
2023/04/01 05:38:55;;;;;;;4.50;3.30;;;;;;;11.94;68.99;98441.09;6183762;22;97004;-92
2023/04/01 05:41:21;;;;;;;7.80;4.63;;;;;;;11.88;68.80;98433.63;6183944;22;97224;-91
2023/04/01 05:43:46;;;;;;;5.43;3.85;;;;;;;12.09;68.66;98454.13;6157972;22;98357;-91
2023/04/01 05:46:31;;;;;;;4.78;2.50;;;;;;;12.12;68.49;98457.38;6187210;22;97645;-90
2023/04/01 05:49:17;;;;;;;5.55;2.50;;;;;;;12.05;68.59;98461.41;6166583;22;96766;-91
2023/04/01 05:51:42;;;;;;;3.60;2.33;;;;;;;11.99;69.21;98461.84;6133809;22;98314;-92
2023/04/01 05:54:08;;;;;;;4.03;2.17;;;;;;;12.03;69.10;98455.41;6183733;22;101305;-88
2023/04/01 05:56:34;;;;;;;3.67;2.15;;;;;;;12.06;69.39;98454.34;6182120;22;99956;-92
2023/04/01 05:59:00;;;;;;;7.28;2.55;;;;;;;12.04;69.61;98459.69;6183671;22;97547;-91
2023/04/01 06:01:26;;;;;;;4.32;1.90;;;;;;;12.06;69.53;98463.06;6133455;22;96766;-89
2023/04/01 06:03:52;;;;;;;3.92;2.47;;;;;;;11.96;69.27;98447.09;6207927;22;98182;-89
2023/04/01 06:06:28;;;;;;;4.80;2.88;;;;;;;12.05;69.84;98469.28;6132956;22;101498;-89
2023/04/01 06:09:28;;;;;;;3.83;2.22;;;;;;;12.00;69.64;98471.38;6136712;22;97208;-90
2023/04/01 06:12:07;;;;;;;7.75;5.57;;;;;;;12.07;69.89;98475.28;6179965;22;97416;-93
2023/04/01 06:14:42;;;;;;;5.45;2.60;;;;;;;12.05;69.69;98478.97;6157301;22;101953;-88
2023/04/01 06:17:35;;;;;;;4.05;2.65;;;;;;;12.00;69.97;98474.84;6189386;22;101320;-92
2023/04/01 06:20:41;;;;;;;3.47;2.30;;;;;;;12.03;69.89;98486.13;6209885;22;97252;-89
2023/04/01 06:23:17;;;;;;;4.95;2.83;;;;;;;12.05;69.59;98474.56;6207760;22;97443;-87
2023/04/01 06:26:12;;;;;;;4.35;2.50;;;;;;;12.15;69.58;98486.09;6153975;22;98767;-90
2023/04/01 06:28:52;;;;;;;5.47;2.13;;;;;;;12.07;69.74;98483.19;6133898;22;98726;-89
2023/04/01 06:31:40;;;;;;;6.20;2.27;;;;;;;12.05;70.33;98490.31;6183318;22;96683;-89
2023/04/01 06:34:06;;;;;;;4.05;2.10;;;;;;;12.11;70.25;98494.31;6184316;22;96917;-89
2023/04/01 06:36:45;;;;;;;3.80;2.03;;;;;;;12.11;70.16;98491.69;6183053;22;97959;-87
2023/04/01 06:39:17;;;;;;;4.85;2.45;;;;;;;12.10;70.30;98490.84;6184837;22;102156;-89
2023/04/01 06:42:05;;;;;;;3.72;2.20;;;;;;;12.11;70.22;98483.81;6208637;22;96663;-91
2023/04/01 06:45:00;;;;;;;4.70;2.33;;;;;;;12.12;70.27;98493.38;6184461;22;97201;-85
2023/04/01 06:48:01;;;;;;;3.58;2.33;;;;;;;12.14;70.55;98494.13;6209082;22;97725;-89
2023/04/01 06:51:04;;;;;;;3.55;1.75;;;;;;;12.13;70.73;98495.03;6209321;22;97591;-87
2023/04/01 06:54:10;;;;;;;2.90;1.73;;;;;;;12.14;70.28;98492.31;6154427;22;97230;-89
2023/04/01 06:56:59;;;;;;;2.95;1.70;;;;;;;12.17;70.75;98491.25;6188525;22;97112;-87
2023/04/01 06:59:28;;;;;;;3.15;1.83;;;;;;;12.20;71.02;98498.94;6209979;22;99547;-89
2023/04/01 07:02:00;;;;;;;3.05;1.98;;;;;;;12.19;71.16;98497.28;6158751;22;100804;-89
2023/04/01 07:04:34;;;;;;;3.13;1.60;;;;;;;12.20;71.06;98501.56;6209869;22;97262;-89
2023/04/01 07:07:04;;;;;;;4.55;1.80;;;;;;;12.09;71.23;98480.44;6157762;22;97034;-89
2023/04/01 07:09:43;;;;;;;3.58;1.65;;;;;;;12.21;71.00;98501.44;6184042;22;101153;-86
2023/04/01 07:12:37;;;;;;;5.78;1.88;;;;;;;12.23;70.91;98504.00;6187522;22;97660;-92
2023/04/01 07:15:29;;;;;;;9.63;1.85;;;;;;;12.29;71.02;98503.56;6192942;22;97348;-90
2023/04/01 07:17:59;;;;;;;4.60;1.50;;;;;;;12.25;71.11;98507.38;6181088;22;97042;-91
2023/04/01 07:20:42;;;;;;;3.28;1.80;;;;;;;12.21;71.17;98492.72;6180916;22;101132;-87
2023/04/01 07:23:21;;;;;;;4.30;1.83;;;;;;;12.22;71.57;98495.25;6181716;22;98578;-91
2023/04/01 07:26:25;;;;;;;3.83;1.40;;;;;;;12.36;71.30;98511.84;6183339;22;96719;-88
2023/04/01 07:28:53;;;;;;;5.75;1.88;;;;;;;12.35;71.80;98510.19;6212528;22;97136;-90
2023/04/01 07:32:15;;;;;;;4.38;1.88;;;;;;;12.29;71.26;98518.50;6216941;22;98891;-89
2023/04/01 07:35:02;;;;;;;2.47;1.60;;;;;;;12.36;71.21;98519.75;6229384;22;100656;-87
2023/04/01 07:37:43;;;;;;;4.90;1.80;;;;;;;12.38;71.32;98517.88;6189622;22;97297;-87
2023/04/01 07:40:34;;;;;;;4.43;1.50;;;;;;;12.35;71.49;98515.44;6182132;22;96807;-85
2023/04/01 07:43:29;;;;;;;8.60;1.70;;;;;;;12.28;71.71;98504.53;6182964;22;100867;-86
2023/04/01 07:46:50;;;;;;;5.82;1.73;;;;;;;12.37;71.74;98519.66;6207934;22;102195;-88
2023/04/01 07:49:25;;;;;;;4.88;1.52;;;;;;;12.43;71.95;98521.84;6182240;22;96725;-86
2023/04/01 07:52:03;;;;;;;5.68;1.65;;;;;;;12.36;71.74;98502.19;6183042;22;98088;-85
2023/04/01 07:54:32;;;;;;;4.53;1.50;;;;;;;12.46;71.74;98524.28;6207483;22;101454;-90
2023/04/01 07:57:00;;;;;;;6.05;1.85;;;;;;;12.45;71.32;98530.50;6179318;22;101625;-85
2023/04/01 07:59:58;;;;;;;6.72;1.73;;;;;;;12.39;71.47;98509.00;6207200;22;97137;-87
2023/04/01 08:02:59;;;;;;;5.05;1.65;;;;;;;12.51;71.07;98534.50;6209451;22;98290;-83
2023/04/01 08:05:28;;;;;;;4.05;1.60;;;;;;;12.55;71.38;98535.09;6183918;22;100016;-86
2023/04/01 08:08:09;;;;;;;4.07;1.75;;;;;;;12.57;71.92;98527.94;6209768;22;98439;-85
2023/04/01 08:11:32;;;;;;;4.90;1.75;;;;;;;12.51;71.24;98528.34;6210721;22;96617;-82
2023/04/01 08:14:22;;;;;;;;;;;;;;;12.53;72.07;98537.00;6182994;22;97186;-88
2023/04/01 08:17:36;;;;;;;4.85;1.33;;;;;;;12.58;71.21;98541.00;6221214;22;97596;-88
2023/04/01 08:20:23;;;;;;;6.38;1.92;;;;;;;12.61;70.90;98542.56;6164044;22;100806;-90
2023/04/01 08:23:28;;;;;;;6.47;1.90;;;;;;;12.58;70.70;98543.63;6192964;22;97372;-93
2023/04/01 08:26:02;;;;;;;4.55;1.90;;;;;;;12.50;71.38;98539.84;6172907;22;97062;-89
2023/04/01 08:28:37;;;;;;;4.65;1.98;;;;;;;12.45;70.93;98527.88;6191414;22;100297;-88
2023/04/01 08:31:23;;;;;;;6.15;1.88;;;;;;;12.60;70.82;98548.78;6182628;22;101320;-90
2023/04/01 08:33:49;;;;;;;5.95;2.13;;;;;;;12.60;71.04;98543.53;6186794;22;97550;-87
2023/04/01 08:36:23;;;;;;;4.30;1.42;;;;;;;12.68;70.82;98555.19;6163209;22;96640;-92
2023/04/01 08:39:16;;;;;;;4.65;2.10;;;;;;;12.68;71.28;98557.84;6166782;22;98389;-94
2023/04/01 08:41:46;;;;;;;7.00;2.35;;;;;;;12.71;71.25;98556.75;6211998;22;101429;-94
2023/04/01 08:45:17;;;;;;;4.07;1.75;;;;;;;12.77;71.11;98558.97;6216553;22;97372;-90
2023/04/01 08:48:08;;;;;;;4.82;2.28;;;;;;;12.78;70.63;98554.53;6102328;22;98412;-93
2023/04/01 08:50:53;;;;;;;7.55;2.00;;;;;;;12.64;70.93;98523.91;6185176;22;102004;-83
2023/04/01 08:53:44;;;;;;;3.72;1.77;;;;;;;12.83;71.57;98558.53;6185570;22;99834;-83
2023/04/01 08:56:59;;;;;;;5.03;2.00;;;;;;;12.85;71.01;98555.78;6211981;22;96852;-83
2023/04/01 08:59:37;;;;;;;5.30;1.77;;;;;;;12.79;70.44;98540.41;6038702;23;97120;-83
2023/04/01 09:02:35;;;;;;;4.47;1.90;;;;;;;12.95;70.83;98548.91;6039987;23;98433;-84
2023/04/01 09:05:34;;;;;;;3.75;1.77;;;;;;;13.02;70.54;98560.69;6058859;23;100562;-83
2023/04/01 09:08:00;;;;;;;7.68;2.58;;;;;;;13.13;70.47;98560.75;6062872;23;97362;-84
2023/04/01 09:11:05;;;;;;;3.63;1.77;;;;;;;13.01;70.77;98534.47;6062340;23;96821;-82
2023/04/01 09:14:04;;;;;;;3.78;1.65;;;;;;;13.19;70.48;98561.25;6027567;23;97326;-82
2023/04/01 09:17:05;;;;;;;5.18;1.80;;;;;;;12.98;70.18;98535.53;6002741;23;101800;-82
2023/04/01 09:20:00;;;;;;;7.20;2.13;;;;;;;13.16;70.53;98570.22;5980269;23;96864;-82
2023/04/01 09:23:19;;;;;;;3.25;1.60;;;;;;;13.10;69.75;98566.25;5981740;23;96871;-82
2023/04/01 09:26:04;;;;;;;2.83;1.42;;;;;;;13.16;69.45;98577.28;6002285;23;101421;-83
2023/04/01 09:29:07;;;;;;;4.47;1.70;;;;;;;13.17;69.06;98582.44;6004281;23;97969;-83
2023/04/01 09:31:59;;;;;;;3.85;1.67;;;;;;;13.16;68.57;98564.97;6004238;23;96953;-83
2023/04/01 09:35:01;;;;;;;5.30;1.63;;;;;;;13.31;69.31;98576.22;6076958;22;97009;-83
2023/04/01 09:37:44;;;;;;;2.60;1.73;;;;;;;13.25;68.14;98579.25;6102861;22;102028;-83
2023/04/01 09:40:34;;;;;;;3.13;1.85;;;;;;;13.22;68.14;98575.06;6171013;22;101118;-83
2023/04/01 09:43:33;;;;;;;3.15;1.88;;;;;;;13.34;67.88;98578.63;6126557;22;96704;-85
2023/04/01 09:46:03;;;;;;;3.97;1.83;;;;;;;13.39;68.30;98586.19;6101511;22;97328;-84
2023/04/01 09:48:43;;;;;;;6.28;2.13;;;;;;;13.42;68.32;98584.19;6177019;22;100662;-84
2023/04/01 09:51:31;;;;;;;4.82;2.22;;;;;;;13.32;68.31;98562.94;6200989;22;101551;-82
2023/04/01 09:54:27;;;;;;;3.35;1.90;;;;;;;13.58;68.82;98582.09;6188327;22;96661;-81
2023/04/01 09:57:15;;;;;;;3.80;2.10;;;;;;;13.59;68.11;98591.69;6178050;22;97414;-83
2023/04/01 10:00:29;;;;;;;4.18;2.10;;;;;;;13.49;67.68;98580.13;6185491;22;100299;-82
2023/04/01 10:03:06;;;;;;;3.70;1.88;;;;;;;13.80;67.66;98589.25;6145491;22;101766;-83
2023/04/01 10:05:58;;;;;;;3.40;1.50;;;;;;;14.07;66.03;98589.94;6184994;22;97400;-83
2023/04/01 10:08:51;;;;;;;4.45;2.08;;;;;;;14.17;65.79;98590.94;6186221;22;96812;-82
2023/04/01 10:11:45;;;;;;;3.53;1.65;;;;;;;14.46;65.12;98586.06;6183149;22;101677;-83
2023/04/01 10:14:43;;;;;;;5.43;1.65;;;;;;;14.56;65.16;98589.66;6184716;22;101225;-82
2023/04/01 10:17:12;;;;;;;3.38;1.60;;;;;;;14.59;64.66;98586.78;6099563;22;97537;-82
2023/04/01 10:19:55;;;;;;;4.75;1.83;;;;;;;14.59;64.94;98591.25;6210212;22;97116;-84
2023/04/01 10:22:52;;;;;;;6.43;1.75;;;;;;;14.56;64.61;98581.75;6183110;22;101633;-83
2023/04/01 10:25:23;;;;;;;6.18;2.25;;;;;;;14.64;64.36;98587.28;6208041;22;102307;-84
2023/04/01 10:28:03;;;;;;;6.85;1.92;;;;;;;14.68;63.67;98582.59;6181996;22;98322;-83
2023/04/01 10:31:35;;;;;;;6.85;1.90;;;;;;;14.81;63.70;98588.59;6202842;22;97228;-82
2023/04/01 10:34:39;;;;;;;3.80;1.33;;;;;;;14.89;63.57;98577.41;6168391;22;101762;-82
2023/04/01 10:37:27;;;;;;;5.63;1.70;;;;;;;14.92;62.76;98583.31;6206771;22;98353;-82
2023/04/01 10:40:17;;;;;;;3.50;1.50;;;;;;;14.86;62.39;98585.59;6203255;22;96963;-82
2023/04/01 10:43:55;;;;;;;2.72;1.40;;;;;;;14.88;62.93;98586.31;6201893;22;97429;-82
2023/04/01 10:46:43;;;;;;;2.55;1.45;;;;;;;14.80;62.61;98583.44;6206149;22;101698;-82
2023/04/01 10:49:15;;;;;;;4.95;1.73;;;;;;;14.69;62.98;98589.56;6183940;22;101536;-83
2023/04/01 10:52:12;;;;;;;2.60;1.42;;;;;;;14.60;63.40;98584.97;6206547;22;97417;-82
2023/04/01 10:55:10;;;;;;;5.07;1.50;;;;;;;14.43;64.03;98602.13;6212036;22;97227;-83
2023/04/01 10:58:16;;;;;;;3.20;1.42;;;;;;;14.33;64.98;98615.16;6139505;22;97837;-78
2023/04/01 11:01:07;;;;;;;4.18;1.50;;;;;;;14.32;65.99;98615.31;6233192;22;98424;-80
2023/04/01 11:04:02;;;;;;;3.35;1.75;;;;;;;14.07;67.11;98611.88;6232172;22;96981;-79
2023/04/01 11:06:48;;;;;;;3.05;1.63;;;;;;;14.00;67.70;98614.13;6231753;22;97329;-80
2023/04/01 11:09:46;;;;;;;2.88;2.10;;;;;;;13.93;67.11;98612.94;6203847;22;100886;-80
2023/04/01 11:12:32;;;;;;;2.45;1.60;;;;;;;13.93;66.63;98612.06;6179691;22;97598;-80
2023/04/01 11:15:16;;;;;;;3.03;1.83;;;;;;;13.82;67.28;98615.53;6234509;22;97100;-81
2023/04/01 11:18:07;;;;;;;3.55;1.98;;;;;;;13.87;67.12;98608.09;6201535;22;97128;-81
2023/04/01 11:20:44;;;;;;;4.22;2.17;;;;;;;13.91;68.09;98612.19;6175677;22;100465;-82
2023/04/01 11:23:48;;;;;;;3.53;1.90;;;;;;;13.94;68.10;98611.97;6179589;22;101496;-79
2023/04/01 11:26:33;;;;;;;7.60;3.75;;;;;;;13.88;68.04;98612.44;6199419;22;97591;-82
2023/04/01 11:29:45;;;;;;;4.35;2.00;;;;;;;13.98;68.30;98616.03;6065784;23;97178;-80
2023/04/01 11:32:48;;;;;;;2.00;1.42;;;;;;;13.91;68.71;98627.19;6079527;23;101181;-78
2023/04/01 11:35:29;;;;;;;1.92;1.30;;;;;;;14.08;69.04;98632.03;6078577;23;102505;-85
2023/04/01 11:38:17;;;;;;;3.00;1.40;;;;;;;14.04;69.18;98625.28;6078134;23;98131;-83
2023/04/01 11:40:52;;;;;;;4.07;1.65;;;;;;;13.95;68.96;98613.63;6079388;23;97569;-81
2023/04/01 11:43:39;;;;;;;3.33;1.42;;;;;;;14.06;68.92;98623.38;6076938;23;98088;-81
2023/04/01 11:46:59;;;;;;;5.65;1.83;;;;;;;14.11;68.71;98634.44;6066272;23;98511;-82
2023/04/01 11:49:52;;;;;;;2.70;1.65;;;;;;;14.09;69.02;98630.22;6083603;23;97192;-80
2023/04/01 11:52:52;;;;;;;2.90;1.90;;;;;;;14.18;68.92;98621.63;6083472;23;96880;-80
2023/04/01 11:55:45;;;;;;;2.60;1.67;;;;;;;14.26;68.07;98648.28;6057565;23;101803;-84
2023/04/01 11:58:58;;;;;;;3.13;1.77;;;;;;;14.07;66.91;98611.03;6084854;23;101450;-86
2023/04/01 12:01:28;;;;;;;2.25;1.10;;;;;;;14.09;67.21;98646.91;6207865;22;96860;-85
2023/04/01 12:04:08;;;;;;;1.48;1.10;;;;;;;13.92;67.58;98647.31;6179975;22;97208;-86
2023/04/01 12:06:48;;;;;;;2.80;1.20;;;;;;;13.95;67.70;98647.91;6181089;22;100390;-85
2023/04/01 12:09:19;;;;;;;2.45;1.40;;;;;;;13.99;67.59;98659.94;6182160;22;101536;-86
2023/04/01 12:11:49;;;;;;;;;;;;;;;13.80;68.04;98668.38;6207122;22;97043;-85
2023/04/01 12:14:33;;;;;;;3.17;1.58;;;;;;;13.78;68.64;98665.00;6182001;22;97138;-86
2023/04/01 12:17:09;;;;;;;4.35;1.65;;;;;;;13.74;68.75;98666.19;6176166;22;100702;-86
2023/04/01 12:19:48;;;;;;;2.03;1.23;;;;;;;13.76;68.58;98661.66;6203763;22;98049;-86
2023/04/01 12:22:22;;;;;;;1.92;1.25;;;;;;;13.77;69.29;98655.41;6180769;22;97190;-87
2023/04/01 12:25:06;;;;;;;2.28;1.23;;;;;;;13.97;70.05;98653.09;6206588;22;97502;-86